LICJ/PMO METAR and TAF weather

Enter ICAO airport designator
Station Type Date Time Source
LICJ METAR 2019/10/15 03:20 UTC NOAA

LICJ 150320Z 07006KT CAVOK 21/17 Q1017


Station Type Date Time Source
LICJ Decoded METAR 2019/10/15 03:20 UTC NOAA

Palermo / Punta Raisi, Italy (LICJ) 38-11N 013-06E 21M
Oct 14, 2019 - 11:20 PM EDT / 2019.10.15 0320 UTC
Wind: from the ENE (070 degrees) at 7 MPH (6 KT):0
Visibility: greater than 7 mile(s):0
Temperature: 69 F (21 C)
Dew Point: 62 F (17 C)
Relative Humidity: 77%
Pressure (altimeter): 30.03 in. Hg (1017 hPa)
ob: LICJ 150320Z 07006KT CAVOK 21/17 Q1017
cycle: 3

Station Type Date Time Source
LICJ TAF 2019/10/14 18:21 UTC NOAA

TAF LICJ 141700Z 1418/1518 19014KT 9999 FEW025 SCT050
TEMPO 1510/1516 SHRA

Example: see airport list